Terminal Aerodrome Forecast
Issued by NWS

Home | Current Version | Previous Version | Text Only | Print | Product List | Glossary On
Versions: 1 2 3 4 5 6 7 8 9 10 11 12 13 14
000
FTPQ31 PGUM 171129
TAFGUM
TAF

TAF
PKMJ 171129Z 1712/1812 04017KT P6SM VCSH SCT015 BKN050 BKN120
      TEMPO 1714/1717 5SM -SHRA SCT012 BKN030=

USA.gov is the U.S. government's official web portal to all federal, state and local government web resources and services.